sensor_id;sensor_type;location;lat;lon;timestamp;P1;durP1;ratioP1;P2;durP2;ratioP2
19735;SDS011;32064;49.310;8.646;2022-11-20T00:01:09;5.63;;;5.10;;
19735;SDS011;32064;49.310;8.646;2022-11-20T00:03:35;5.17;;;4.67;;
19735;SDS011;32064;49.310;8.646;2022-11-20T00:06:01;6.73;;;5.10;;
19735;SDS011;32064;49.310;8.646;2022-11-20T00:08:30;5.10;;;4.60;;
19735;SDS011;32064;49.310;8.646;2022-11-20T00:10:56;5.07;;;4.57;;
19735;SDS011;32064;49.310;8.646;2022-11-20T00:13:21;5.10;;;4.60;;
19735;SDS011;32064;49.310;8.646;2022-11-20T00:15:47;8.67;;;4.63;;
19735;SDS011;32064;49.310;8.646;2022-11-20T00:18:13;5.67;;;4.83;;
19735;SDS011;32064;49.310;8.646;2022-11-20T00:20:38;6.23;;;4.70;;
19735;SDS011;32064;49.310;8.646;2022-11-20T00:23:04;5.33;;;4.83;;
19735;SDS011;32064;49.310;8.646;2022-11-20T00:25:30;6.07;;;5.40;;
19735;SDS011;32064;49.310;8.646;2022-11-20T00:27:56;5.67;;;5.17;;
19735;SDS011;32064;49.310;8.646;2022-11-20T00:30:21;5.73;;;5.13;;
19735;SDS011;32064;49.310;8.646;2022-11-20T00:32:47;5.20;;;4.70;;
19735;SDS011;32064;49.310;8.646;2022-11-20T00:35:12;5.23;;;4.53;;
19735;SDS011;32064;49.310;8.646;2022-11-20T00:37:37;5.30;;;4.77;;
19735;SDS011;32064;49.310;8.646;2022-11-20T00:40:03;5.60;;;5.10;;
19735;SDS011;32064;49.310;8.646;2022-11-20T00:42:29;5.93;;;5.33;;
19735;SDS011;32064;49.310;8.646;2022-11-20T00:44:54;5.40;;;4.80;;
19735;SDS011;32064;49.310;8.646;2022-11-20T00:47:19;5.47;;;4.93;;
19735;SDS011;32064;49.310;8.646;2022-11-20T00:49:45;5.63;;;5.00;;
19735;SDS011;32064;49.310;8.646;2022-11-20T00:52:10;5.40;;;4.90;;
19735;SDS011;32064;49.310;8.646;2022-11-20T00:54:36;5.07;;;4.57;;
19735;SDS011;32064;49.310;8.646;2022-11-20T00:57:01;5.67;;;5.03;;
19735;SDS011;32064;49.310;8.646;2022-11-20T00:59:26;5.13;;;4.63;;
19735;SDS011;32064;49.310;8.646;2022-11-20T01:01:52;5.73;;;5.00;;
19735;SDS011;32064;49.310;8.646;2022-11-20T01:04:17;5.20;;;4.70;;
19735;SDS011;32064;49.310;8.646;2022-11-20T01:06:42;4.73;;;4.13;;
19735;SDS011;32064;49.310;8.646;2022-11-20T01:09:10;6.17;;;4.70;;
19735;SDS011;32064;49.310;8.646;2022-11-20T01:11:38;5.20;;;4.70;;
19735;SDS011;32064;49.310;8.646;2022-11-20T01:14:07;5.07;;;4.57;;
19735;SDS011;32064;49.310;8.646;2022-11-20T01:16:37;5.13;;;4.47;;
19735;SDS011;32064;49.310;8.646;2022-11-20T01:19:06;5.23;;;4.60;;
19735;SDS011;32064;49.310;8.646;2022-11-20T01:21:35;5.33;;;4.67;;
19735;SDS011;32064;49.310;8.646;2022-11-20T01:24:12;5.13;;;4.63;;
19735;SDS011;32064;49.310;8.646;2022-11-20T01:26:40;6.43;;;4.90;;
19735;SDS011;32064;49.310;8.646;2022-11-20T01:29:08;5.37;;;4.27;;
19735;SDS011;32064;49.310;8.646;2022-11-20T01:31:38;5.60;;;4.50;;
19735;SDS011;32064;49.310;8.646;2022-11-20T01:34:05;5.10;;;4.60;;
19735;SDS011;32064;49.310;8.646;2022-11-20T01:36:32;7.80;;;4.87;;
19735;SDS011;32064;49.310;8.646;2022-11-20T01:39:01;4.80;;;4.30;;
19735;SDS011;32064;49.310;8.646;2022-11-20T01:41:29;5.20;;;4.70;;
19735;SDS011;32064;49.310;8.646;2022-11-20T01:44:16;5.37;;;4.70;;
19735;SDS011;32064;49.310;8.646;2022-11-20T01:49:27;5.10;;;4.60;;
19735;SDS011;32064;49.310;8.646;2022-11-20T01:52:01;5.53;;;4.90;;
19735;SDS011;32064;49.310;8.646;2022-11-20T01:54:39;4.93;;;4.43;;
19735;SDS011;32064;49.310;8.646;2022-11-20T01:57:11;7.03;;;5.53;;
19735;SDS011;32064;49.310;8.646;2022-11-20T01:59:43;6.83;;;6.03;;
19735;SDS011;32064;49.310;8.646;2022-11-20T02:02:12;6.50;;;5.33;;
19735;SDS011;32064;49.310;8.646;2022-11-20T02:04:38;8.03;;;5.57;;
19735;SDS011;32064;49.310;8.646;2022-11-20T02:07:03;7.10;;;5.43;;
19735;SDS011;32064;49.310;8.646;2022-11-20T02:09:30;7.57;;;6.20;;
19735;SDS011;32064;49.310;8.646;2022-11-20T02:11:56;6.17;;;5.43;;
19735;SDS011;32064;49.310;8.646;2022-11-20T02:14:23;7.33;;;6.03;;
19735;SDS011;32064;49.310;8.646;2022-11-20T02:16:49;7.97;;;6.10;;
19735;SDS011;32064;49.310;8.646;2022-11-20T02:24:23;6.00;;;5.33;;
19735;SDS011;32064;49.310;8.646;2022-11-20T02:29:24;6.43;;;5.50;;
19735;SDS011;32064;49.310;8.646;2022-11-20T02:31:52;7.43;;;6.00;;
19735;SDS011;32064;49.310;8.646;2022-11-20T02:34:20;6.90;;;5.83;;
19735;SDS011;32064;49.310;8.646;2022-11-20T02:36:45;7.17;;;6.20;;
19735;SDS011;32064;49.310;8.646;2022-11-20T02:39:11;7.67;;;6.17;;
19735;SDS011;32064;49.310;8.646;2022-11-20T02:41:41;8.43;;;6.23;;
19735;SDS011;32064;49.310;8.646;2022-11-20T02:44:07;9.30;;;6.43;;
19735;SDS011;32064;49.310;8.646;2022-11-20T02:46:33;8.67;;;6.80;;
19735;SDS011;32064;49.310;8.646;2022-11-20T02:48:58;10.73;;;7.23;;
19735;SDS011;32064;49.310;8.646;2022-11-20T02:51:24;9.70;;;7.20;;
19735;SDS011;32064;49.310;8.646;2022-11-20T02:53:49;10.50;;;7.37;;
19735;SDS011;32064;49.310;8.646;2022-11-20T02:56:15;7.27;;;6.23;;
19735;SDS011;32064;49.310;8.646;2022-11-20T02:58:41;7.73;;;6.77;;
19735;SDS011;32064;49.310;8.646;2022-11-20T03:01:06;7.93;;;6.63;;
19735;SDS011;32064;49.310;8.646;2022-11-20T03:03:31;8.80;;;6.90;;
19735;SDS011;32064;49.310;8.646;2022-11-20T03:05:58;10.33;;;7.47;;
19735;SDS011;32064;49.310;8.646;2022-11-20T03:08:24;7.87;;;6.87;;
19735;SDS011;32064;49.310;8.646;2022-11-20T03:10:49;8.77;;;6.77;;
19735;SDS011;32064;49.310;8.646;2022-11-20T03:13:15;9.70;;;7.63;;
19735;SDS011;32064;49.310;8.646;2022-11-20T03:15:40;9.60;;;7.17;;
19735;SDS011;32064;49.310;8.646;2022-11-20T03:18:05;9.90;;;7.13;;
19735;SDS011;32064;49.310;8.646;2022-11-20T03:20:32;8.23;;;6.87;;
19735;SDS011;32064;49.310;8.646;2022-11-20T03:22:58;8.47;;;7.47;;
19735;SDS011;32064;49.310;8.646;2022-11-20T03:25:24;11.20;;;7.43;;
19735;SDS011;32064;49.310;8.646;2022-11-20T03:27:49;7.97;;;7.07;;
19735;SDS011;32064;49.310;8.646;2022-11-20T03:30:15;9.27;;;7.27;;
19735;SDS011;32064;49.310;8.646;2022-11-20T03:32:40;10.83;;;7.40;;
19735;SDS011;32064;49.310;8.646;2022-11-20T03:35:06;8.73;;;7.70;;
19735;SDS011;32064;49.310;8.646;2022-11-20T03:37:32;8.37;;;7.57;;
19735;SDS011;32064;49.310;8.646;2022-11-20T03:39:57;8.23;;;7.20;;
19735;SDS011;32064;49.310;8.646;2022-11-20T03:42:22;13.97;;;8.17;;
19735;SDS011;32064;49.310;8.646;2022-11-20T03:45:07;8.57;;;7.67;;
19735;SDS011;32064;49.310;8.646;2022-11-20T03:47:32;10.77;;;7.47;;
19735;SDS011;32064;49.310;8.646;2022-11-20T03:49:58;11.03;;;7.60;;
19735;SDS011;32064;49.310;8.646;2022-11-20T03:52:23;10.50;;;7.83;;
19735;SDS011;32064;49.310;8.646;2022-11-20T03:54:48;9.57;;;7.37;;
19735;SDS011;32064;49.310;8.646;2022-11-20T03:57:14;10.23;;;7.20;;
19735;SDS011;32064;49.310;8.646;2022-11-20T03:59:39;7.73;;;6.60;;
19735;SDS011;32064;49.310;8.646;2022-11-20T04:02:04;10.30;;;7.47;;
19735;SDS011;32064;49.310;8.646;2022-11-20T04:04:30;8.17;;;6.67;;
19735;SDS011;32064;49.310;8.646;2022-11-20T04:06:55;9.93;;;7.03;;
19735;SDS011;32064;49.310;8.646;2022-11-20T04:09:21;9.77;;;7.90;;
19735;SDS011;32064;49.310;8.646;2022-11-20T04:11:46;9.27;;;7.57;;
19735;SDS011;32064;49.310;8.646;2022-11-20T04:14:15;8.50;;;7.10;;
19735;SDS011;32064;49.310;8.646;2022-11-20T04:16:41;10.33;;;7.90;;
19735;SDS011;32064;49.310;8.646;2022-11-20T04:19:10;8.60;;;7.17;;
19735;SDS011;32064;49.310;8.646;2022-11-20T04:21:40;10.67;;;7.80;;
19735;SDS011;32064;49.310;8.646;2022-11-20T04:24:06;10.03;;;7.37;;
19735;SDS011;32064;49.310;8.646;2022-11-20T04:26:32;8.40;;;7.20;;
19735;SDS011;32064;49.310;8.646;2022-11-20T04:28:58;10.03;;;7.37;;
19735;SDS011;32064;49.310;8.646;2022-11-20T04:31:25;10.00;;;7.53;;
19735;SDS011;32064;49.310;8.646;2022-11-20T04:33:52;9.20;;;6.87;;
19735;SDS011;32064;49.310;8.646;2022-11-20T04:36:19;7.90;;;7.10;;
19735;SDS011;32064;49.310;8.646;2022-11-20T04:38:46;9.27;;;7.07;;
19735;SDS011;32064;49.310;8.646;2022-11-20T04:41:16;7.97;;;7.17;;
19735;SDS011;32064;49.310;8.646;2022-11-20T04:43:50;10.03;;;7.50;;
19735;SDS011;32064;49.310;8.646;2022-11-20T04:46:17;9.77;;;7.03;;
19735;SDS011;32064;49.310;8.646;2022-11-20T04:48:44;9.97;;;6.80;;
19735;SDS011;32064;49.310;8.646;2022-11-20T04:51:10;8.10;;;6.77;;
19735;SDS011;32064;49.310;8.646;2022-11-20T04:53:35;16.13;;;11.17;;
19735;SDS011;32064;49.310;8.646;2022-11-20T04:56:01;8.63;;;7.70;;
19735;SDS011;32064;49.310;8.646;2022-11-20T04:58:28;8.43;;;6.53;;
19735;SDS011;32064;49.310;8.646;2022-11-20T05:01:00;7.63;;;6.83;;
19735;SDS011;32064;49.310;8.646;2022-11-20T05:03:26;7.30;;;6.57;;
19735;SDS011;32064;49.310;8.646;2022-11-20T05:05:52;7.80;;;6.57;;
19735;SDS011;32064;49.310;8.646;2022-11-20T05:08:17;8.63;;;6.50;;
19735;SDS011;32064;49.310;8.646;2022-11-20T05:10:43;8.40;;;6.67;;
19735;SDS011;32064;49.310;8.646;2022-11-20T05:13:08;9.60;;;6.77;;
19735;SDS011;32064;49.310;8.646;2022-11-20T05:15:33;7.10;;;6.40;;
19735;SDS011;32064;49.310;8.646;2022-11-20T05:17:59;6.63;;;5.90;;
19735;SDS011;32064;49.310;8.646;2022-11-20T05:20:24;6.80;;;6.00;;
19735;SDS011;32064;49.310;8.646;2022-11-20T05:22:49;6.80;;;6.07;;
19735;SDS011;32064;49.310;8.646;2022-11-20T05:25:15;7.53;;;6.13;;
19735;SDS011;32064;49.310;8.646;2022-11-20T05:27:40;7.97;;;6.90;;
19735;SDS011;32064;49.310;8.646;2022-11-20T05:30:06;7.97;;;7.07;;
19735;SDS011;32064;49.310;8.646;2022-11-20T05:32:32;7.53;;;6.70;;
19735;SDS011;32064;49.310;8.646;2022-11-20T05:34:57;10.90;;;7.07;;
19735;SDS011;32064;49.310;8.646;2022-11-20T05:37:23;8.17;;;6.50;;
19735;SDS011;32064;49.310;8.646;2022-11-20T05:39:48;9.80;;;7.10;;
19735;SDS011;32064;49.310;8.646;2022-11-20T05:42:13;8.40;;;7.43;;
19735;SDS011;32064;49.310;8.646;2022-11-20T05:45:00;8.30;;;7.20;;
19735;SDS011;32064;49.310;8.646;2022-11-20T05:47:31;10.03;;;7.80;;
19735;SDS011;32064;49.310;8.646;2022-11-20T05:49:58;9.50;;;7.50;;
19735;SDS011;32064;49.310;8.646;2022-11-20T05:52:24;9.83;;;7.03;;
19735;SDS011;32064;49.310;8.646;2022-11-20T05:54:52;8.43;;;7.63;;
19735;SDS011;32064;49.310;8.646;2022-11-20T05:57:18;8.53;;;6.77;;
19735;SDS011;32064;49.310;8.646;2022-11-20T05:59:43;8.87;;;7.40;;
19735;SDS011;32064;49.310;8.646;2022-11-20T06:02:08;8.23;;;7.33;;
19735;SDS011;32064;49.310;8.646;2022-11-20T06:04:34;8.27;;;7.40;;
19735;SDS011;32064;49.310;8.646;2022-11-20T06:06:59;8.77;;;7.83;;
19735;SDS011;32064;49.310;8.646;2022-11-20T06:09:25;8.30;;;7.40;;
19735;SDS011;32064;49.310;8.646;2022-11-20T06:11:50;9.17;;;7.20;;
19735;SDS011;32064;49.310;8.646;2022-11-20T06:14:15;9.67;;;8.03;;
19735;SDS011;32064;49.310;8.646;2022-11-20T06:16:41;8.97;;;6.53;;
19735;SDS011;32064;49.310;8.646;2022-11-20T06:19:06;8.17;;;7.37;;
19735;SDS011;32064;49.310;8.646;2022-11-20T06:21:31;7.87;;;6.97;;
19735;SDS011;32064;49.310;8.646;2022-11-20T06:23:57;8.73;;;7.17;;
19735;SDS011;32064;49.310;8.646;2022-11-20T06:26:23;12.97;;;9.10;;
19735;SDS011;32064;49.310;8.646;2022-11-20T06:28:51;9.97;;;8.90;;
19735;SDS011;32064;49.310;8.646;2022-11-20T06:31:18;11.73;;;8.40;;
19735;SDS011;32064;49.310;8.646;2022-11-20T06:33:45;8.63;;;7.27;;
19735;SDS011;32064;49.310;8.646;2022-11-20T06:36:11;6.20;;;5.53;;
19735;SDS011;32064;49.310;8.646;2022-11-20T06:38:38;6.30;;;5.70;;
19735;SDS011;32064;49.310;8.646;2022-11-20T06:41:04;5.73;;;5.13;;
19735;SDS011;32064;49.310;8.646;2022-11-20T06:43:32;7.03;;;6.23;;
19735;SDS011;32064;49.310;8.646;2022-11-20T06:45:58;7.13;;;6.00;;
19735;SDS011;32064;49.310;8.646;2022-11-20T06:48:24;7.10;;;6.40;;
19735;SDS011;32064;49.310;8.646;2022-11-20T06:50:51;7.73;;;6.70;;
19735;SDS011;32064;49.310;8.646;2022-11-20T06:53:17;9.47;;;7.77;;
19735;SDS011;32064;49.310;8.646;2022-11-20T06:55:43;12.93;;;8.80;;
19735;SDS011;32064;49.310;8.646;2022-11-20T06:58:10;8.87;;;7.70;;
19735;SDS011;32064;49.310;8.646;2022-11-20T07:00:35;10.03;;;7.60;;
19735;SDS011;32064;49.310;8.646;2022-11-20T07:03:04;9.20;;;6.57;;
19735;SDS011;32064;49.310;8.646;2022-11-20T07:05:33;6.90;;;6.17;;
19735;SDS011;32064;49.310;8.646;2022-11-20T07:08:00;7.63;;;6.77;;
19735;SDS011;32064;49.310;8.646;2022-11-20T07:10:25;7.77;;;6.70;;
19735;SDS011;32064;49.310;8.646;2022-11-20T07:12:51;10.50;;;6.63;;
19735;SDS011;32064;49.310;8.646;2022-11-20T07:15:18;7.13;;;6.20;;
19735;SDS011;32064;49.310;8.646;2022-11-20T07:17:44;10.90;;;7.73;;
19735;SDS011;32064;49.310;8.646;2022-11-20T07:20:10;12.20;;;9.47;;
19735;SDS011;32064;49.310;8.646;2022-11-20T07:22:36;8.13;;;6.87;;
19735;SDS011;32064;49.310;8.646;2022-11-20T07:25:02;8.77;;;6.20;;
19735;SDS011;32064;49.310;8.646;2022-11-20T07:27:28;6.73;;;5.63;;
19735;SDS011;32064;49.310;8.646;2022-11-20T07:29:54;7.03;;;6.33;;
19735;SDS011;32064;49.310;8.646;2022-11-20T07:32:19;7.07;;;5.77;;
19735;SDS011;32064;49.310;8.646;2022-11-20T07:34:44;6.87;;;5.03;;
19735;SDS011;32064;49.310;8.646;2022-11-20T07:37:10;6.23;;;5.33;;
19735;SDS011;32064;49.310;8.646;2022-11-20T07:39:35;7.37;;;6.00;;
19735;SDS011;32064;49.310;8.646;2022-11-20T07:42:01;6.60;;;5.90;;
19735;SDS011;32064;49.310;8.646;2022-11-20T07:44:26;5.53;;;5.03;;
19735;SDS011;32064;49.310;8.646;2022-11-20T07:46:52;6.97;;;3.97;;
19735;SDS011;32064;49.310;8.646;2022-11-20T07:49:17;5.23;;;3.90;;
19735;SDS011;32064;49.310;8.646;2022-11-20T07:51:42;6.60;;;2.73;;
19735;SDS011;32064;49.310;8.646;2022-11-20T07:54:08;4.77;;;3.13;;
19735;SDS011;32064;49.310;8.646;2022-11-20T07:56:33;3.13;;;2.83;;
19735;SDS011;32064;49.310;8.646;2022-11-20T07:58:59;4.47;;;2.90;;
19735;SDS011;32064;49.310;8.646;2022-11-20T08:01:24;4.20;;;3.40;;
19735;SDS011;32064;49.310;8.646;2022-11-20T08:03:50;4.37;;;3.60;;
19735;SDS011;32064;49.310;8.646;2022-11-20T08:06:15;8.90;;;7.13;;
19735;SDS011;32064;49.310;8.646;2022-11-20T08:08:41;6.23;;;3.30;;
19735;SDS011;32064;49.310;8.646;2022-11-20T08:11:06;18.63;;;15.87;;
19735;SDS011;32064;49.310;8.646;2022-11-20T08:13:50;6.93;;;3.03;;
19735;SDS011;32064;49.310;8.646;2022-11-20T08:16:34;3.83;;;3.30;;
19735;SDS011;32064;49.310;8.646;2022-11-20T08:18:59;3.70;;;2.63;;
19735;SDS011;32064;49.310;8.646;2022-11-20T08:21:24;3.80;;;3.07;;
19735;SDS011;32064;49.310;8.646;2022-11-20T08:23:50;4.73;;;3.10;;
19735;SDS011;32064;49.310;8.646;2022-11-20T08:26:15;3.27;;;2.90;;
19735;SDS011;32064;49.310;8.646;2022-11-20T08:28:41;4.00;;;3.00;;
19735;SDS011;32064;49.310;8.646;2022-11-20T08:31:06;3.97;;;3.20;;
19735;SDS011;32064;49.310;8.646;2022-11-20T08:33:31;5.23;;;3.50;;
19735;SDS011;32064;49.310;8.646;2022-11-20T08:35:58;4.80;;;3.30;;
19735;SDS011;32064;49.310;8.646;2022-11-20T08:38:28;7.60;;;3.90;;
19735;SDS011;32064;49.310;8.646;2022-11-20T08:41:00;5.47;;;4.97;;
19735;SDS011;32064;49.310;8.646;2022-11-20T08:43:45;6.00;;;4.43;;
19735;SDS011;32064;49.310;8.646;2022-11-20T08:46:11;5.77;;;3.77;;
19735;SDS011;32064;49.310;8.646;2022-11-20T08:48:37;3.80;;;3.37;;
19735;SDS011;32064;49.310;8.646;2022-11-20T08:51:02;3.77;;;2.97;;
19735;SDS011;32064;49.310;8.646;2022-11-20T08:53:28;3.47;;;3.10;;
19735;SDS011;32064;49.310;8.646;2022-11-20T08:55:53;5.70;;;3.00;;
19735;SDS011;32064;49.310;8.646;2022-11-20T08:58:19;3.60;;;3.27;;
19735;SDS011;32064;49.310;8.646;2022-11-20T09:00:44;3.77;;;3.03;;
19735;SDS011;32064;49.310;8.646;2022-11-20T09:03:10;4.57;;;3.37;;
19735;SDS011;32064;49.310;8.646;2022-11-20T09:05:35;9.30;;;5.53;;
19735;SDS011;32064;49.310;8.646;2022-11-20T09:08:00;4.87;;;3.67;;
19735;SDS011;32064;49.310;8.646;2022-11-20T09:10:26;4.17;;;3.73;;
19735;SDS011;32064;49.310;8.646;2022-11-20T09:12:52;3.83;;;3.47;;
19735;SDS011;32064;49.310;8.646;2022-11-20T09:15:20;3.83;;;3.20;;
19735;SDS011;32064;49.310;8.646;2022-11-20T09:17:56;4.47;;;3.20;;
19735;SDS011;32064;49.310;8.646;2022-11-20T09:20:23;3.47;;;2.67;;
19735;SDS011;32064;49.310;8.646;2022-11-20T09:22:49;4.17;;;3.73;;
19735;SDS011;32064;49.310;8.646;2022-11-20T09:25:14;17.33;;;11.50;;
19735;SDS011;32064;49.310;8.646;2022-11-20T09:27:40;6.43;;;5.20;;
19735;SDS011;32064;49.310;8.646;2022-11-20T09:30:08;4.20;;;3.80;;
19735;SDS011;32064;49.310;8.646;2022-11-20T09:32:34;4.30;;;3.80;;
19735;SDS011;32064;49.310;8.646;2022-11-20T09:35:00;3.97;;;3.23;;
19735;SDS011;32064;49.310;8.646;2022-11-20T09:37:26;5.30;;;3.10;;
19735;SDS011;32064;49.310;8.646;2022-11-20T09:39:51;4.07;;;3.47;;
19735;SDS011;32064;49.310;8.646;2022-11-20T09:50:43;5.87;;;4.73;;
19735;SDS011;32064;49.310;8.646;2022-11-20T09:56:19;9.73;;;6.10;;
19735;SDS011;32064;49.310;8.646;2022-11-20T09:58:47;6.97;;;5.27;;
19735;SDS011;32064;49.310;8.646;2022-11-20T10:01:16;6.67;;;4.43;;
19735;SDS011;32064;49.310;8.646;2022-11-20T10:04:03;7.70;;;5.60;;
19735;SDS011;32064;49.310;8.646;2022-11-20T10:06:43;5.17;;;4.27;;
19735;SDS011;32064;49.310;8.646;2022-11-20T10:18:11;3.40;;;2.70;;
19735;SDS011;32064;49.310;8.646;2022-11-20T10:25:39;5.50;;;4.07;;
19735;SDS011;32064;49.310;8.646;2022-11-20T10:28:12;5.40;;;4.10;;
19735;SDS011;32064;49.310;8.646;2022-11-20T10:30:48;3.20;;;2.77;;
19735;SDS011;32064;49.310;8.646;2022-11-20T10:33:21;6.50;;;4.70;;
19735;SDS011;32064;49.310;8.646;2022-11-20T10:41:27;9.90;;;6.33;;
19735;SDS011;32064;49.310;8.646;2022-11-20T10:46:45;5.97;;;4.60;;
19735;SDS011;32064;49.310;8.646;2022-11-20T10:49:12;5.20;;;4.30;;
19735;SDS011;32064;49.310;8.646;2022-11-20T10:54:30;3.43;;;3.00;;
19735;SDS011;32064;49.310;8.646;2022-11-20T10:57:00;4.10;;;3.40;;
19735;SDS011;32064;49.310;8.646;2022-11-20T11:02:22;6.47;;;3.57;;
19735;SDS011;32064;49.310;8.646;2022-11-20T11:04:50;5.80;;;3.97;;
19735;SDS011;32064;49.310;8.646;2022-11-20T11:07:35;6.27;;;4.97;;
19735;SDS011;32064;49.310;8.646;2022-11-20T11:10:05;6.57;;;4.40;;
19735;SDS011;32064;49.310;8.646;2022-11-20T11:12:42;5.00;;;3.77;;
19735;SDS011;32064;49.310;8.646;2022-11-20T11:15:12;5.67;;;4.43;;
19735;SDS011;32064;49.310;8.646;2022-11-20T11:17:58;4.17;;;3.70;;
19735;SDS011;32064;49.310;8.646;2022-11-20T11:20:24;3.13;;;2.83;;
19735;SDS011;32064;49.310;8.646;2022-11-20T11:22:57;3.33;;;2.60;;
19735;SDS011;32064;49.310;8.646;2022-11-20T11:25:30;7.10;;;3.20;;
19735;SDS011;32064;49.310;8.646;2022-11-20T11:28:00;2.80;;;2.60;;
19735;SDS011;32064;49.310;8.646;2022-11-20T11:30:28;3.43;;;3.13;;
19735;SDS011;32064;49.310;8.646;2022-11-20T11:33:02;4.60;;;3.07;;
19735;SDS011;32064;49.310;8.646;2022-11-20T11:35:30;5.23;;;2.50;;
19735;SDS011;32064;49.310;8.646;2022-11-20T11:38:03;2.60;;;2.00;;
19735;SDS011;32064;49.310;8.646;2022-11-20T11:40:37;3.00;;;2.53;;
19735;SDS011;32064;49.310;8.646;2022-11-20T11:43:05;4.97;;;3.10;;
19735;SDS011;32064;49.310;8.646;2022-11-20T11:46:01;4.40;;;2.53;;
19735;SDS011;32064;49.310;8.646;2022-11-20T11:48:27;2.57;;;1.87;;
19735;SDS011;32064;49.310;8.646;2022-11-20T11:50:52;9.83;;;5.20;;
19735;SDS011;32064;49.310;8.646;2022-11-20T11:53:21;9.50;;;7.37;;
19735;SDS011;32064;49.310;8.646;2022-11-20T11:55:56;10.17;;;5.03;;
19735;SDS011;32064;49.310;8.646;2022-11-20T12:04:11;4.60;;;2.00;;
19735;SDS011;32064;49.310;8.646;2022-11-20T12:06:47;2.97;;;2.07;;
19735;SDS011;32064;49.310;8.646;2022-11-20T12:09:18;4.60;;;3.03;;
19735;SDS011;32064;49.310;8.646;2022-11-20T12:14:40;5.63;;;2.23;;
19735;SDS011;32064;49.310;8.646;2022-11-20T12:17:11;5.87;;;2.60;;
19735;SDS011;32064;49.310;8.646;2022-11-20T12:19:38;3.97;;;2.17;;
19735;SDS011;32064;49.310;8.646;2022-11-20T12:24:50;3.73;;;2.00;;
19735;SDS011;32064;49.310;8.646;2022-11-20T12:30:01;4.60;;;2.87;;
19735;SDS011;32064;49.310;8.646;2022-11-20T12:48:21;4.40;;;2.13;;
19735;SDS011;32064;49.310;8.646;2022-11-20T12:52:56;4.60;;;2.27;;
19735;SDS011;32064;49.310;8.646;2022-11-20T13:06:51;3.57;;;2.23;;
19735;SDS011;32064;49.310;8.646;2022-11-20T13:09:17;4.60;;;1.70;;
19735;SDS011;32064;49.310;8.646;2022-11-20T13:14:23;3.80;;;1.80;;
19735;SDS011;32064;49.310;8.646;2022-11-20T13:17:06;6.23;;;1.40;;
19735;SDS011;32064;49.310;8.646;2022-11-20T13:19:39;2.83;;;1.17;;
19735;SDS011;32064;49.310;8.646;2022-11-20T13:22:07;2.13;;;1.10;;
19735;SDS011;32064;49.310;8.646;2022-11-20T13:24:34;5.67;;;2.20;;
19735;SDS011;32064;49.310;8.646;2022-11-20T13:29:37;2.17;;;1.10;;
19735;SDS011;32064;49.310;8.646;2022-11-20T13:32:15;4.00;;;1.50;;
19735;SDS011;32064;49.310;8.646;2022-11-20T13:34:55;4.60;;;1.80;;
19735;SDS011;32064;49.310;8.646;2022-11-20T13:37:27;4.67;;;3.13;;
19735;SDS011;32064;49.310;8.646;2022-11-20T13:42:38;3.53;;;1.40;;
19735;SDS011;32064;49.310;8.646;2022-11-20T13:45:10;2.10;;;1.33;;
19735;SDS011;32064;49.310;8.646;2022-11-20T13:47:47;1.70;;;1.20;;
19735;SDS011;32064;49.310;8.646;2022-11-20T13:50:14;2.63;;;1.77;;
19735;SDS011;32064;49.310;8.646;2022-11-20T14:00:45;4.83;;;1.53;;
19735;SDS011;32064;49.310;8.646;2022-11-20T14:03:24;1.90;;;1.50;;
19735;SDS011;32064;49.310;8.646;2022-11-20T14:05:59;3.60;;;1.90;;
19735;SDS011;32064;49.310;8.646;2022-11-20T14:13:54;3.30;;;1.67;;
19735;SDS011;32064;49.310;8.646;2022-11-20T14:16:23;2.63;;;1.50;;
19735;SDS011;32064;49.310;8.646;2022-11-20T14:18:50;4.03;;;2.70;;
19735;SDS011;32064;49.310;8.646;2022-11-20T14:23:54;5.43;;;2.23;;
19735;SDS011;32064;49.310;8.646;2022-11-20T14:26:28;5.07;;;2.30;;
19735;SDS011;32064;49.310;8.646;2022-11-20T14:28:54;3.70;;;2.17;;
19735;SDS011;32064;49.310;8.646;2022-11-20T14:31:22;3.63;;;2.10;;
19735;SDS011;32064;49.310;8.646;2022-11-20T14:33:50;5.17;;;1.70;;
19735;SDS011;32064;49.310;8.646;2022-11-20T14:36:18;3.27;;;1.77;;
19735;SDS011;32064;49.310;8.646;2022-11-20T14:38:46;3.07;;;1.50;;
19735;SDS011;32064;49.310;8.646;2022-11-20T14:43:49;2.77;;;1.37;;
19735;SDS011;32064;49.310;8.646;2022-11-20T14:46:20;2.50;;;1.70;;
19735;SDS011;32064;49.310;8.646;2022-11-20T14:48:47;6.70;;;3.90;;
19735;SDS011;32064;49.310;8.646;2022-11-20T14:54:14;5.63;;;3.43;;
19735;SDS011;32064;49.310;8.646;2022-11-20T14:56:41;6.07;;;3.17;;
19735;SDS011;32064;49.310;8.646;2022-11-20T14:59:22;6.13;;;3.23;;
19735;SDS011;32064;49.310;8.646;2022-11-20T15:01:59;3.83;;;2.37;;
19735;SDS011;32064;49.310;8.646;2022-11-20T15:04:28;5.37;;;1.97;;
19735;SDS011;32064;49.310;8.646;2022-11-20T15:06:55;3.90;;;2.30;;
19735;SDS011;32064;49.310;8.646;2022-11-20T15:09:21;4.80;;;2.13;;
19735;SDS011;32064;49.310;8.646;2022-11-20T15:11:54;4.47;;;2.17;;
19735;SDS011;32064;49.310;8.646;2022-11-20T15:14:22;4.17;;;2.47;;
19735;SDS011;32064;49.310;8.646;2022-11-20T15:16:49;4.57;;;2.63;;
19735;SDS011;32064;49.310;8.646;2022-11-20T15:19:19;6.93;;;3.17;;
19735;SDS011;32064;49.310;8.646;2022-11-20T15:21:46;5.07;;;3.30;;
19735;SDS011;32064;49.310;8.646;2022-11-20T15:24:12;6.03;;;3.07;;
19735;SDS011;32064;49.310;8.646;2022-11-20T15:26:37;7.20;;;3.23;;
19735;SDS011;32064;49.310;8.646;2022-11-20T15:29:05;5.17;;;3.17;;
19735;SDS011;32064;49.310;8.646;2022-11-20T15:31:43;6.97;;;3.93;;
19735;SDS011;32064;49.310;8.646;2022-11-20T15:34:16;5.70;;;3.10;;
19735;SDS011;32064;49.310;8.646;2022-11-20T15:36:42;7.13;;;3.90;;
19735;SDS011;32064;49.310;8.646;2022-11-20T15:39:08;6.60;;;4.20;;
19735;SDS011;32064;49.310;8.646;2022-11-20T15:41:34;6.73;;;4.10;;
19735;SDS011;32064;49.310;8.646;2022-11-20T15:44:00;8.13;;;4.97;;
19735;SDS011;32064;49.310;8.646;2022-11-20T15:46:26;7.23;;;4.77;;
19735;SDS011;32064;49.310;8.646;2022-11-20T15:48:54;8.63;;;5.57;;
19735;SDS011;32064;49.310;8.646;2022-11-20T15:53:51;8.30;;;5.30;;
19735;SDS011;32064;49.310;8.646;2022-11-20T15:56:16;9.73;;;4.73;;
19735;SDS011;32064;49.310;8.646;2022-11-20T15:58:42;6.53;;;3.50;;
19735;SDS011;32064;49.310;8.646;2022-11-20T16:01:11;8.00;;;3.53;;
19735;SDS011;32064;49.310;8.646;2022-11-20T16:03:37;6.87;;;3.70;;
19735;SDS011;32064;49.310;8.646;2022-11-20T16:06:03;5.83;;;3.70;;
19735;SDS011;32064;49.310;8.646;2022-11-20T16:08:28;7.50;;;3.70;;
19735;SDS011;32064;49.310;8.646;2022-11-20T16:10:53;5.57;;;3.33;;
19735;SDS011;32064;49.310;8.646;2022-11-20T16:13:19;9.00;;;3.80;;
19735;SDS011;32064;49.310;8.646;2022-11-20T16:16:08;7.30;;;4.67;;
19735;SDS011;32064;49.310;8.646;2022-11-20T16:18:44;7.57;;;4.00;;
19735;SDS011;32064;49.310;8.646;2022-11-20T16:21:12;5.37;;;3.20;;
19735;SDS011;32064;49.310;8.646;2022-11-20T16:23:38;5.27;;;3.20;;
19735;SDS011;32064;49.310;8.646;2022-11-20T16:26:10;6.70;;;2.97;;
19735;SDS011;32064;49.310;8.646;2022-11-20T16:28:36;3.63;;;2.50;;
19735;SDS011;32064;49.310;8.646;2022-11-20T16:31:11;4.70;;;2.13;;
19735;SDS011;32064;49.310;8.646;2022-11-20T16:33:38;5.17;;;2.07;;
19735;SDS011;32064;49.310;8.646;2022-11-20T16:36:14;4.67;;;1.93;;
19735;SDS011;32064;49.310;8.646;2022-11-20T16:38:40;3.50;;;1.93;;
19735;SDS011;32064;49.310;8.646;2022-11-20T16:41:06;7.77;;;2.70;;
19735;SDS011;32064;49.310;8.646;2022-11-20T16:43:42;5.27;;;2.57;;
19735;SDS011;32064;49.310;8.646;2022-11-20T16:46:13;14.57;;;6.27;;
19735;SDS011;32064;49.310;8.646;2022-11-20T16:48:39;8.67;;;2.97;;
19735;SDS011;32064;49.310;8.646;2022-11-20T16:51:04;7.40;;;5.17;;
19735;SDS011;32064;49.310;8.646;2022-11-20T16:53:34;9.50;;;2.90;;
19735;SDS011;32064;49.310;8.646;2022-11-20T16:56:12;5.10;;;3.00;;